createdAt,value
2022-10-19T00:00:29.976Z,17.08
2022-10-19T00:02:56.450Z,17.52
2022-10-19T00:05:22.861Z,18.80
2022-10-19T00:07:49.292Z,17.88
2022-10-19T00:10:15.866Z,18.20
2022-10-19T00:12:42.374Z,18.05
2022-10-19T00:15:09.227Z,17.92
2022-10-19T00:17:35.927Z,19.30
2022-10-19T00:20:02.455Z,17.35
2022-10-19T00:22:28.853Z,19.25
2022-10-19T00:24:56.893Z,18.60
2022-10-19T00:27:23.291Z,20.02
2022-10-19T00:29:49.702Z,19.63
2022-10-19T00:32:16.084Z,19.33
2022-10-19T00:34:42.512Z,19.70
2022-10-19T00:37:08.943Z,18.85
2022-10-19T00:39:35.348Z,17.50
2022-10-19T00:42:01.763Z,17.80
2022-10-19T00:44:30.895Z,17.83
2022-10-19T00:47:02.145Z,18.25
2022-10-19T00:49:31.028Z,17.80
2022-10-19T00:52:02.079Z,18.25
2022-10-19T00:54:31.605Z,18.08
2022-10-19T00:56:58.937Z,16.23
2022-10-19T00:59:27.058Z,17.35
2022-10-19T01:01:54.307Z,16.05
2022-10-19T01:04:22.091Z,15.25
2022-10-19T01:06:48.568Z,16.00
2022-10-19T01:09:15.024Z,15.45
2022-10-19T01:12:03.789Z,16.05
2022-10-19T01:14:48.194Z,14.65
2022-10-19T01:17:29.680Z,15.32
2022-10-19T01:20:03.195Z,14.40
2022-10-19T01:23:00.340Z,15.07
2022-10-19T01:25:42.259Z,15.07
2022-10-19T01:28:18.266Z,13.43
2022-10-19T01:30:59.104Z,13.25
2022-10-19T01:33:54.021Z,13.75
2022-10-19T01:36:31.889Z,14.05
2022-10-19T01:39:17.591Z,14.00
2022-10-19T01:42:02.146Z,14.38
2022-10-19T01:44:39.556Z,13.95
2022-10-19T01:47:10.241Z,14.40
2022-10-19T01:50:03.450Z,13.23
2022-10-19T01:52:30.933Z,14.18
2022-10-19T01:55:00.657Z,14.38
2022-10-19T01:57:31.665Z,14.45
2022-10-19T01:59:58.251Z,15.00
2022-10-19T02:02:28.045Z,14.40
2022-10-19T02:04:56.894Z,14.10
2022-10-19T02:07:24.628Z,13.52
2022-10-19T02:09:51.033Z,12.88
2022-10-19T02:12:17.910Z,12.43
2022-10-19T02:14:47.846Z,12.50
2022-10-19T02:17:21.095Z,10.95
2022-10-19T02:19:47.500Z,11.35
2022-10-19T02:22:13.999Z,10.63
2022-10-19T02:24:40.540Z,9.40
2022-10-19T02:27:07.895Z,9.27
2022-10-19T02:29:34.532Z,8.68
2022-10-19T02:32:01.531Z,8.93
2022-10-19T02:34:28.048Z,8.52
2022-10-19T02:36:54.847Z,8.40
2022-10-19T02:39:21.596Z,8.45
2022-10-19T02:42:10.535Z,8.80
2022-10-19T02:44:43.771Z,8.57
2022-10-19T02:47:30.211Z,8.82
2022-10-19T02:49:56.692Z,8.35
2022-10-19T02:52:23.128Z,9.00
2022-10-19T02:54:49.536Z,9.32
2022-10-19T02:57:18.728Z,8.98
2022-10-19T02:59:45.225Z,9.95
2022-10-19T03:02:12.217Z,10.00
2022-10-19T03:04:38.838Z,8.90
2022-10-19T03:07:05.368Z,8.77
2022-10-19T03:09:31.760Z,9.27
2022-10-19T03:11:58.368Z,8.80
2022-10-19T03:14:24.784Z,8.40
2022-10-19T03:16:51.204Z,7.82
2022-10-19T03:19:17.697Z,7.93
2022-10-19T03:21:44.086Z,8.00
2022-10-19T03:24:10.490Z,7.65
2022-10-19T03:26:37.294Z,6.47
2022-10-19T03:29:04.091Z,6.68
2022-10-19T03:31:30.547Z,7.05
2022-10-19T03:33:56.936Z,6.68
2022-10-19T03:36:25.631Z,6.65
2022-10-19T03:38:53.509Z,6.53
2022-10-19T03:41:21.250Z,6.88
2022-10-19T03:43:47.654Z,6.90
2022-10-19T03:46:14.135Z,6.97
2022-10-19T03:48:40.566Z,7.30
2022-10-19T03:51:09.600Z,6.90
2022-10-19T03:53:36.842Z,8.38
2022-10-19T03:56:05.764Z,7.43
2022-10-19T03:58:34.105Z,7.82
2022-10-19T04:01:00.725Z,8.17
2022-10-19T04:03:27.542Z,8.00
2022-10-19T04:06:11.553Z,8.00
2022-10-19T04:08:38.003Z,9.05
2022-10-19T04:11:06.899Z,8.35
2022-10-19T04:13:34.274Z,8.93
2022-10-19T04:16:00.892Z,8.57
2022-10-19T04:18:27.549Z,8.93
2022-10-19T04:21:03.031Z,8.00
2022-10-19T04:23:31.192Z,8.45
2022-10-19T04:26:06.336Z,8.82
2022-10-19T04:28:33.743Z,9.70
2022-10-19T04:31:07.047Z,8.60
2022-10-19T04:33:34.522Z,9.45
2022-10-19T04:36:02.158Z,8.18
2022-10-19T04:38:29.102Z,8.57
2022-10-19T04:40:56.143Z,8.70
2022-10-19T04:43:22.815Z,8.40
2022-10-19T04:45:49.212Z,7.72
2022-10-19T04:48:15.592Z,7.93
2022-10-19T04:50:42.017Z,8.75
2022-10-19T04:53:08.433Z,7.45
2022-10-19T04:55:34.870Z,8.07
2022-10-19T04:58:01.260Z,8.38
2022-10-19T05:00:27.716Z,8.60
2022-10-19T05:02:54.211Z,8.85
2022-10-19T05:05:20.661Z,7.65
2022-10-19T05:07:48.870Z,7.00
2022-10-19T05:10:15.301Z,6.95
2022-10-19T05:12:41.706Z,7.78
2022-10-19T05:15:08.730Z,9.15
2022-10-19T05:17:35.549Z,8.57
2022-10-19T05:20:02.373Z,8.93
2022-10-19T05:22:28.815Z,8.32
2022-10-19T05:24:58.077Z,9.90
2022-10-19T05:27:24.844Z,9.23
2022-10-19T05:29:51.212Z,9.35
2022-10-19T05:32:17.641Z,10.98
2022-10-19T05:34:44.068Z,11.00
2022-10-19T05:37:10.444Z,10.93
2022-10-19T05:39:36.853Z,10.90
2022-10-19T05:42:03.416Z,10.85
2022-10-19T05:44:29.841Z,10.52
2022-10-19T05:46:56.316Z,11.00
2022-10-19T05:49:22.761Z,10.70
2022-10-19T05:51:49.608Z,11.32
2022-10-19T05:54:16.395Z,11.38
2022-10-19T05:56:43.053Z,11.73
2022-10-19T05:59:13.972Z,11.40
2022-10-19T06:01:40.488Z,11.18
2022-10-19T06:04:07.520Z,11.88
2022-10-19T06:06:34.089Z,12.52
2022-10-19T06:09:00.946Z,13.07
2022-10-19T06:11:29.591Z,12.95
2022-10-19T06:13:58.127Z,12.90
2022-10-19T06:16:25.937Z,13.98
2022-10-19T06:18:53.155Z,13.77
2022-10-19T06:21:21.725Z,13.65
2022-10-19T06:23:52.777Z,15.23
2022-10-19T06:26:20.429Z,14.70
2022-10-19T06:28:47.504Z,14.05
2022-10-19T06:31:14.752Z,14.25
2022-10-19T06:33:43.175Z,13.65
2022-10-19T06:36:19.344Z,13.77
2022-10-19T06:38:46.058Z,14.85
2022-10-19T06:41:12.988Z,14.75
2022-10-19T06:43:39.599Z,14.52
2022-10-19T06:46:15.406Z,14.85
2022-10-19T06:48:42.365Z,14.10
2022-10-19T06:51:08.733Z,15.40
2022-10-19T06:53:36.166Z,14.63
2022-10-19T06:56:05.204Z,16.20
2022-10-19T06:58:35.368Z,15.77
2022-10-19T07:01:02.317Z,15.35
2022-10-19T07:03:30.552Z,14.98
2022-10-19T07:05:59.456Z,14.13
2022-10-19T07:08:27.344Z,14.90
2022-10-19T07:10:58.024Z,14.88
2022-10-19T07:13:25.341Z,14.82
2022-10-19T07:15:57.565Z,15.00
2022-10-19T07:18:24.340Z,15.35
2022-10-19T07:20:57.504Z,15.43
2022-10-19T07:23:25.155Z,16.25
2022-10-19T07:25:53.455Z,16.15
2022-10-19T07:28:21.417Z,15.93
2022-10-19T07:30:47.922Z,16.00
2022-10-19T07:33:14.411Z,15.90
2022-10-19T07:35:40.959Z,16.20
2022-10-19T07:38:08.448Z,16.20
2022-10-19T07:40:35.423Z,15.18
2022-10-19T07:43:02.004Z,16.50
2022-10-19T07:45:29.968Z,15.55
2022-10-19T07:47:56.638Z,15.40
2022-10-19T07:50:24.594Z,15.95
2022-10-19T07:52:52.134Z,15.50
2022-10-19T07:55:19.292Z,14.38
2022-10-19T07:57:49.539Z,15.52
2022-10-19T08:00:16.778Z,15.35
2022-10-19T08:02:59.829Z,15.48
2022-10-19T08:05:32.699Z,14.40
2022-10-19T08:07:59.128Z,15.45
2022-10-19T08:10:25.540Z,14.15
2022-10-19T08:12:51.919Z,14.30
2022-10-19T08:15:18.491Z,14.05
2022-10-19T08:17:44.938Z,13.85
2022-10-19T08:20:11.333Z,13.90
2022-10-19T08:22:37.858Z,13.65
2022-10-19T08:25:04.543Z,13.30
2022-10-19T08:27:30.995Z,13.55
2022-10-19T08:29:57.447Z,12.25
2022-10-19T08:32:23.871Z,13.02
2022-10-19T08:34:50.232Z,12.32
2022-10-19T08:37:32.591Z,11.50
2022-10-19T08:40:03.486Z,12.07
2022-10-19T08:42:59.368Z,12.07
2022-10-19T08:45:31.027Z,12.05
2022-10-19T08:48:00.888Z,11.63
2022-10-19T08:50:39.352Z,11.95
2022-10-19T08:53:48.805Z,12.80
2022-10-19T08:56:49.254Z,13.05
2022-10-19T08:59:22.065Z,13.52
2022-10-19T09:02:08.441Z,13.15
2022-10-19T09:04:45.130Z,12.65
2022-10-19T09:07:29.572Z,12.48
2022-10-19T09:09:59.899Z,11.98
2022-10-19T09:12:43.305Z,12.57
2022-10-19T09:15:20.879Z,12.88
2022-10-19T09:17:47.496Z,13.30
2022-10-19T09:20:22.921Z,12.45
2022-10-19T09:23:00.032Z,12.88
2022-10-19T09:25:27.171Z,11.52
2022-10-19T09:28:04.336Z,12.73
2022-10-19T09:30:33.896Z,11.85
2022-10-19T09:33:01.334Z,11.50
2022-10-19T09:35:33.572Z,12.00
2022-10-19T09:38:00.404Z,11.45
2022-10-19T09:40:28.924Z,11.20
2022-10-19T09:42:59.321Z,10.90
2022-10-19T09:45:46.788Z,10.95
2022-10-19T09:48:38.132Z,10.73
2022-10-19T09:51:11.849Z,10.10
2022-10-19T09:53:38.374Z,9.85
2022-10-19T09:56:07.590Z,9.30
2022-10-19T09:58:34.890Z,9.15
2022-10-19T10:01:02.352Z,8.25
2022-10-19T10:03:30.383Z,8.98
2022-10-19T10:05:59.303Z,9.00
2022-10-19T10:08:31.280Z,8.68
2022-10-19T10:11:27.676Z,7.57
2022-10-19T10:13:55.258Z,7.72
2022-10-19T10:16:23.672Z,8.18
2022-10-19T10:18:51.565Z,8.50
2022-10-19T10:21:47.264Z,8.93
2022-10-19T10:24:13.543Z,8.40
2022-10-19T10:26:42.319Z,8.00
2022-10-19T10:29:25.397Z,8.10
2022-10-19T10:31:55.144Z,7.88
2022-10-19T10:37:28.676Z,7.82
2022-10-19T10:39:59.194Z,7.95
2022-10-19T10:42:37.416Z,7.88
2022-10-19T10:45:04.820Z,7.90
2022-10-19T10:47:31.438Z,7.70
2022-10-19T10:50:01.158Z,7.72
2022-10-19T10:52:31.252Z,7.18
2022-10-19T10:55:04.286Z,7.05
2022-10-19T10:57:34.336Z,6.97
2022-10-19T11:00:14.586Z,7.65
2022-10-19T11:03:15.608Z,7.03
2022-10-19T11:05:45.269Z,7.43
2022-10-19T11:08:49.301Z,6.75
2022-10-19T11:11:22.845Z,6.82
2022-10-19T11:14:30.027Z,6.70
2022-10-19T11:16:59.860Z,6.13
2022-10-19T11:19:30.728Z,5.97
2022-10-19T11:22:15.597Z,6.03
2022-10-19T11:24:53.984Z,6.15
2022-10-19T11:27:58.781Z,6.43
2022-10-19T11:30:25.871Z,6.05
2022-10-19T11:33:07.584Z,5.55
2022-10-19T11:35:56.826Z,5.57
2022-10-19T11:38:35.215Z,5.47
2022-10-19T11:41:20.042Z,4.72
2022-10-19T11:43:49.495Z,5.07
2022-10-19T11:49:19.383Z,4.57
2022-10-19T11:51:57.286Z,5.05
2022-10-19T11:54:43.914Z,5.20
2022-10-19T11:57:15.235Z,4.25
2022-10-19T12:00:15.007Z,4.60
2022-10-19T12:02:47.843Z,4.32
2022-10-19T12:05:31.721Z,4.15
2022-10-19T12:08:21.293Z,4.18
2022-10-19T12:11:27.574Z,4.15
2022-10-19T12:14:00.573Z,3.42
2022-10-19T12:16:35.958Z,3.33
2022-10-19T12:19:03.290Z,3.28
2022-10-19T12:21:43.423Z,3.10
2022-10-19T12:24:16.461Z,3.20
2022-10-19T12:26:43.728Z,3.10
2022-10-19T12:29:21.917Z,3.70
2022-10-19T12:31:48.988Z,3.30
2022-10-19T12:34:43.039Z,3.35
2022-10-19T12:37:18.626Z,3.22
2022-10-19T12:40:04.391Z,3.20
2022-10-19T12:42:57.067Z,3.17
2022-10-19T12:45:42.212Z,3.33
2022-10-19T12:48:08.943Z,3.17
2022-10-19T12:50:51.388Z,2.80
2022-10-19T12:56:11.818Z,3.45
2022-10-19T12:58:46.778Z,3.58
2022-10-19T13:01:44.109Z,3.40
2022-10-19T13:04:21.988Z,4.07
2022-10-19T13:06:51.015Z,4.25
2022-10-19T13:09:42.127Z,3.75
2022-10-19T13:12:21.722Z,4.32
2022-10-19T13:15:01.012Z,4.70
2022-10-19T13:17:36.993Z,4.40
2022-10-19T13:20:15.580Z,4.70
2022-10-19T13:23:01.476Z,4.15
2022-10-19T13:25:35.161Z,4.47
2022-10-19T13:28:07.681Z,4.63
2022-10-19T13:30:38.032Z,4.80
2022-10-19T13:33:25.789Z,4.45
2022-10-19T13:35:58.245Z,5.05
2022-10-19T13:38:32.598Z,4.85
2022-10-19T13:41:27.719Z,5.50
2022-10-19T13:44:03.263Z,5.13
2022-10-19T13:46:29.542Z,4.95
2022-10-19T13:49:06.066Z,5.07
2022-10-19T13:51:55.005Z,4.15
2022-10-19T13:54:36.332Z,4.50
2022-10-19T13:57:21.226Z,4.15
2022-10-19T14:00:23.332Z,4.70
2022-10-19T14:02:58.346Z,5.50
2022-10-19T14:05:46.063Z,4.45
2022-10-19T14:08:44.838Z,4.90
2022-10-19T14:11:19.268Z,4.55
2022-10-19T14:13:46.645Z,5.15
2022-10-19T14:16:20.743Z,4.90
2022-10-19T14:18:56.863Z,4.40
2022-10-19T14:21:31.840Z,4.50
2022-10-19T14:23:58.905Z,4.65
2022-10-19T14:26:29.880Z,4.57
2022-10-19T14:28:57.818Z,4.53
2022-10-19T14:31:30.881Z,4.90
2022-10-19T14:34:00.967Z,4.20
2022-10-19T14:36:32.323Z,3.67
2022-10-19T14:38:59.283Z,3.97
2022-10-19T14:41:28.865Z,4.05
2022-10-19T14:43:59.885Z,4.10
2022-10-19T14:46:31.115Z,3.97
2022-10-19T14:49:02.640Z,3.70
2022-10-19T14:51:45.480Z,4.63
2022-10-19T14:54:15.312Z,4.05
2022-10-19T14:56:55.599Z,4.25
2022-10-19T14:59:35.328Z,3.78
2022-10-19T15:02:05.393Z,4.78
2022-10-19T15:04:34.504Z,4.30
2022-10-19T15:07:03.783Z,4.10
2022-10-19T15:12:15.755Z,5.03
2022-10-19T15:14:42.476Z,4.55
2022-10-19T15:17:26.779Z,4.75
2022-10-19T15:19:55.933Z,4.25
2022-10-19T15:22:35.432Z,4.50
2022-10-19T15:25:07.817Z,3.90
2022-10-19T15:27:38.581Z,4.45
2022-10-19T15:30:22.215Z,3.90
2022-10-19T15:32:55.102Z,4.25
2022-10-19T15:35:27.477Z,4.45
2022-10-19T15:38:00.685Z,5.32
2022-10-19T15:40:33.410Z,4.75
2022-10-19T15:43:00.238Z,4.88
2022-10-19T15:45:31.659Z,5.05
2022-10-19T15:48:12.085Z,5.07
2022-10-19T15:50:48.203Z,5.43
2022-10-19T15:53:18.566Z,5.35
2022-10-19T15:55:45.265Z,4.88
2022-10-19T15:58:12.701Z,5.00
2022-10-19T16:00:40.247Z,4.82
2022-10-19T16:03:06.732Z,5.03
2022-10-19T16:05:35.242Z,5.13
2022-10-19T16:08:01.664Z,5.27
2022-10-19T16:10:28.449Z,5.00
2022-10-19T16:12:54.832Z,6.00
2022-10-19T16:15:23.032Z,6.50
2022-10-19T16:17:51.523Z,6.60
2022-10-19T16:20:17.987Z,7.15
2022-10-19T16:22:44.671Z,6.30
2022-10-19T16:25:11.635Z,7.10
2022-10-19T16:27:38.327Z,7.47
2022-10-19T16:30:05.593Z,6.72
2022-10-19T16:32:32.198Z,7.40
2022-10-19T16:34:58.610Z,7.68
2022-10-19T16:37:25.244Z,7.30
2022-10-19T16:39:51.660Z,8.38
2022-10-19T16:42:18.051Z,7.95
2022-10-19T16:44:44.563Z,8.40
2022-10-19T16:47:10.948Z,7.32
2022-10-19T16:49:37.572Z,7.72
2022-10-19T17:05:32.151Z,8.02
2022-10-19T17:08:06.415Z,8.52
2022-10-19T17:10:39.478Z,8.88
2022-10-19T17:13:06.108Z,8.95
2022-10-19T17:15:42.965Z,9.00
2022-10-19T17:18:09.832Z,8.60
